Pamukkale, Turkey
Current Conditions -  °F | °C
As of 8:50 AM on Friday 31 Oct 2014 (Local Time) from LTAY Reporting Station
Haze Haze  
Wind Chill: 10°   Ceiling: 10000
Heat Index: 10°   Visibility: 2.1mi
Dew Point:   Wind: 5mph
Humidity: 87%   Direction: 280°W
Pressure: 30"   Gusts: NA
Location:  37.89°N, 29.13°E
Report Text: LTAY 310550Z 28004KT 3500 BR SCT030 BKN100 10/08 Q1016
Loading
Personal Weather Stations






























Interactive Weather Map
Tropical Storm Tracking
New forecast layout! Learn more

10-Day Weather Forecast

Advertisements
Track Severe Weather on mobile